createdAt,value
2018-05-29T00:00:40.228Z,51.80
2018-05-29T00:03:09.625Z,52.03
2018-05-29T00:08:17.553Z,52.17
2018-05-29T00:10:46.427Z,52.18
2018-05-29T00:13:16.574Z,52.50
2018-05-29T00:15:45.124Z,52.40
2018-05-29T00:18:14.063Z,52.45
2018-05-29T00:20:42.659Z,52.56
2018-05-29T00:23:11.165Z,52.79
2018-05-29T00:25:43.182Z,52.97
2018-05-29T00:28:12.441Z,53.01
2018-05-29T00:30:41.891Z,53.00
2018-05-29T00:33:10.784Z,53.21
2018-05-29T00:35:41.628Z,53.29
2018-05-29T00:38:10.167Z,53.38
2018-05-29T00:40:40.032Z,53.32
2018-05-29T00:43:11.751Z,53.50
2018-05-29T00:45:40.363Z,53.84
2018-05-29T00:48:11.738Z,54.02
2018-05-29T00:50:40.340Z,54.06
2018-05-29T00:53:15.631Z,54.17
2018-05-29T00:55:44.266Z,54.29
2018-05-29T00:58:18.751Z,54.50
2018-05-29T01:00:47.506Z,54.56
2018-05-29T01:03:16.272Z,54.72
2018-05-29T01:05:46.707Z,54.82
2018-05-29T01:08:15.608Z,55.08
2018-05-29T01:10:44.481Z,55.25
2018-05-29T01:13:13.435Z,55.94
2018-05-29T01:15:41.962Z,56.34
2018-05-29T01:18:12.119Z,56.62
2018-05-29T01:20:40.680Z,56.71
2018-05-29T01:23:09.182Z,56.72
2018-05-29T01:25:38.193Z,56.78
2018-05-29T01:28:07.173Z,56.84
2018-05-29T01:30:38.687Z,56.77
2018-05-29T01:33:12.283Z,56.40
2018-05-29T01:35:40.838Z,56.15
2018-05-29T01:38:09.352Z,55.99
2018-05-29T01:40:38.495Z,56.04
2018-05-29T01:43:07.071Z,56.22
2018-05-29T01:45:37.019Z,56.31
2018-05-29T01:48:05.978Z,56.58
2018-05-29T01:50:34.544Z,56.77
2018-05-29T01:53:04.208Z,56.92
2018-05-29T01:55:33.175Z,56.96
2018-05-29T01:58:03.355Z,57.61
2018-05-29T02:00:31.967Z,58.03
2018-05-29T02:03:02.123Z,58.11
2018-05-29T02:05:31.484Z,58.26
2018-05-29T02:08:05.419Z,58.51
2018-05-29T02:10:34.315Z,58.60
2018-05-29T02:13:03.511Z,58.94
2018-05-29T02:15:32.083Z,59.15
2018-05-29T02:18:01.167Z,59.51
2018-05-29T02:20:33.342Z,59.80
2018-05-29T02:23:02.782Z,59.87
2018-05-29T02:25:31.782Z,60.07
2018-05-29T02:28:00.385Z,60.36
2018-05-29T02:30:28.961Z,60.57
2018-05-29T02:32:57.990Z,60.66
2018-05-29T02:35:26.527Z,60.79
2018-05-29T02:37:55.070Z,60.88
2018-05-29T02:40:24.039Z,61.07
2018-05-29T02:42:52.538Z,61.15
2018-05-29T02:45:21.070Z,61.12
2018-05-29T02:47:50.239Z,61.45
2018-05-29T02:50:18.804Z,61.45
2018-05-29T02:52:47.307Z,61.87
2018-05-29T02:55:16.116Z,62.18
2018-05-29T02:57:44.700Z,62.24
2018-05-29T03:00:13.676Z,61.73
2018-05-29T03:02:42.616Z,61.77
2018-05-29T03:05:13.612Z,62.23
2018-05-29T03:07:42.205Z,62.63
2018-05-29T03:10:18.651Z,62.75
2018-05-29T03:12:47.184Z,62.61
2018-05-29T03:15:19.532Z,62.91
2018-05-29T03:17:48.698Z,63.32
2018-05-29T03:20:17.719Z,63.50
2018-05-29T03:22:46.325Z,63.10
2018-05-29T03:25:15.519Z,63.01
2018-05-29T03:27:44.063Z,63.15
2018-05-29T03:30:14.168Z,63.08
2018-05-29T03:32:42.984Z,62.87
2018-05-29T03:35:11.539Z,62.88
2018-05-29T03:37:41.112Z,62.59
2018-05-29T03:40:10.071Z,62.12
2018-05-29T03:42:38.652Z,61.98
2018-05-29T03:45:08.400Z,62.02
2018-05-29T03:47:37.361Z,62.04
2018-05-29T03:50:05.903Z,62.00
2018-05-29T03:52:34.473Z,61.80
2018-05-29T03:55:05.571Z,61.64
2018-05-29T03:57:36.313Z,61.47
2018-05-29T04:00:06.585Z,61.38
2018-05-29T04:02:35.146Z,61.35
2018-05-29T04:07:40.205Z,61.05
2018-05-29T04:10:08.743Z,60.96
2018-05-29T04:12:37.307Z,60.83
2018-05-29T04:15:06.415Z,61.04
2018-05-29T04:17:34.947Z,61.09
2018-05-29T04:20:09.517Z,61.33
2018-05-29T04:22:38.567Z,61.54
2018-05-29T04:25:07.151Z,61.64
2018-05-29T04:27:35.648Z,61.90
2018-05-29T04:30:05.943Z,62.56
2018-05-29T04:32:38.364Z,63.58
2018-05-29T04:35:06.865Z,63.16
2018-05-29T04:37:39.210Z,63.31
2018-05-29T04:40:08.737Z,63.28
2018-05-29T04:42:37.339Z,63.50
2018-05-29T04:45:06.232Z,63.53
2018-05-29T04:47:34.818Z,63.85
2018-05-29T04:50:16.658Z,65.89
2018-05-29T04:52:45.641Z,65.54
2018-05-29T04:55:14.251Z,66.40
2018-05-29T04:57:43.809Z,66.10
2018-05-29T05:00:12.643Z,66.38
2018-05-29T05:02:48.104Z,66.73
2018-05-29T05:05:16.748Z,66.76
2018-05-29T05:07:45.284Z,66.81
2018-05-29T05:10:13.807Z,67.12
2018-05-29T05:12:42.688Z,67.15
2018-05-29T05:15:11.226Z,67.00
2018-05-29T05:17:40.700Z,67.22
2018-05-29T05:20:09.846Z,66.82
2018-05-29T05:22:38.674Z,67.06
2018-05-29T05:25:15.019Z,66.83
2018-05-29T05:27:44.017Z,66.74
2018-05-29T05:30:13.371Z,67.17
2018-05-29T05:32:42.920Z,67.87
2018-05-29T05:35:12.080Z,68.35
2018-05-29T05:37:41.262Z,68.41
2018-05-29T05:40:09.789Z,68.25
2018-05-29T05:42:44.970Z,68.67
2018-05-29T05:45:13.669Z,68.50
2018-05-29T05:47:42.299Z,67.99
2018-05-29T05:50:11.430Z,67.39
2018-05-29T05:52:43.494Z,67.01
2018-05-29T05:55:12.025Z,66.60
2018-05-29T05:57:46.979Z,66.23
2018-05-29T06:00:15.631Z,65.62
2018-05-29T06:02:44.505Z,65.29
2018-05-29T06:05:13.895Z,65.92
2018-05-29T06:07:42.434Z,65.70
2018-05-29T06:10:16.507Z,65.06
2018-05-29T06:12:45.491Z,64.43
2018-05-29T06:15:14.031Z,63.53
2018-05-29T06:17:42.667Z,62.94
2018-05-29T06:20:11.554Z,62.28
2018-05-29T06:22:43.736Z,61.68
2018-05-29T06:25:12.389Z,61.27
2018-05-29T06:27:46.267Z,60.87
2018-05-29T06:30:14.840Z,60.55
2018-05-29T06:32:44.047Z,60.54
2018-05-29T06:35:14.540Z,60.32
2018-05-29T06:37:43.157Z,60.52
2018-05-29T06:40:11.805Z,59.71
2018-05-29T06:42:40.855Z,60.41
2018-05-29T06:45:09.504Z,60.56
2018-05-29T06:47:38.098Z,60.30
2018-05-29T06:50:08.495Z,60.28
2018-05-29T06:52:37.084Z,61.15
2018-05-29T06:55:05.839Z,62.26
2018-05-29T06:57:34.688Z,62.79
2018-05-29T07:02:37.695Z,62.01
2018-05-29T07:07:40.247Z,61.20
2018-05-29T07:10:09.631Z,61.00
2018-05-29T07:12:38.648Z,61.51
2018-05-29T07:15:07.245Z,61.24
2018-05-29T07:17:35.784Z,60.40
2018-05-29T07:20:06.170Z,60.01
2018-05-29T07:22:34.766Z,59.49
2018-05-29T07:25:06.687Z,59.49
2018-05-29T07:27:35.720Z,60.27
2018-05-29T07:30:05.645Z,59.68
2018-05-29T07:35:13.994Z,59.10
2018-05-29T07:37:49.122Z,59.04
2018-05-29T07:40:17.882Z,58.91
2018-05-29T07:42:46.719Z,58.46
2018-05-29T07:47:46.134Z,58.01
2018-05-29T07:50:15.998Z,57.42
2018-05-29T07:52:45.029Z,57.64
2018-05-29T07:55:13.618Z,56.55
2018-05-29T07:57:42.232Z,56.29
2018-05-29T08:00:11.151Z,55.53
2018-05-29T08:02:39.728Z,54.82
2018-05-29T08:05:08.879Z,55.04
2018-05-29T08:07:38.274Z,55.30
2018-05-29T08:10:08.971Z,54.63
2018-05-29T08:12:48.675Z,55.02
2018-05-29T08:15:17.712Z,54.70
2018-05-29T08:17:58.947Z,54.71
2018-05-29T08:20:28.239Z,53.74
2018-05-29T08:22:56.871Z,53.43
2018-05-29T08:25:31.656Z,53.53
2018-05-29T08:28:01.820Z,53.23
2018-05-29T08:30:31.077Z,51.92
2018-05-29T08:33:07.359Z,51.69
2018-05-29T08:35:36.463Z,51.77
2018-05-29T08:38:06.135Z,51.89
2018-05-29T08:40:34.900Z,52.29
2018-05-29T08:43:05.691Z,52.49
2018-05-29T08:45:34.280Z,52.77
2018-05-29T08:48:08.591Z,52.71
2018-05-29T08:50:37.681Z,52.90
2018-05-29T08:53:06.263Z,53.75
2018-05-29T08:55:34.799Z,54.59
2018-05-29T08:58:07.475Z,54.46
2018-05-29T09:00:36.070Z,54.93
2018-05-29T09:03:05.598Z,54.08
2018-05-29T09:05:34.651Z,53.57
2018-05-29T09:08:15.311Z,53.27
2018-05-29T09:10:49.197Z,53.10
2018-05-29T09:13:17.972Z,52.95
2018-05-29T09:15:46.688Z,53.31
2018-05-29T09:18:17.932Z,53.14
2018-05-29T09:20:46.727Z,52.73
2018-05-29T09:23:16.816Z,52.38
2018-05-29T09:25:45.941Z,52.09
2018-05-29T09:28:14.571Z,51.76
2018-05-29T09:30:43.186Z,51.57
2018-05-29T09:33:12.031Z,51.48
2018-05-29T09:35:40.858Z,52.22
2018-05-29T09:38:09.442Z,51.61
2018-05-29T09:40:38.305Z,51.62
2018-05-29T09:43:11.690Z,50.62
2018-05-29T09:45:40.840Z,49.61
2018-05-29T09:48:13.773Z,50.75
2018-05-29T09:50:44.106Z,50.54
2018-05-29T09:53:14.660Z,50.74
2018-05-29T09:55:44.196Z,51.19
2018-05-29T09:58:13.055Z,51.09
2018-05-29T10:00:58.366Z,50.68
2018-05-29T10:03:27.275Z,51.34
2018-05-29T10:05:56.481Z,50.81
2018-05-29T10:08:27.400Z,50.45
2018-05-29T10:10:56.138Z,50.60
2018-05-29T10:13:26.590Z,50.89
2018-05-29T10:15:55.254Z,51.02
2018-05-29T10:18:23.983Z,50.72
2018-05-29T10:20:53.115Z,50.40
2018-05-29T10:23:27.297Z,50.37
2018-05-29T10:25:57.168Z,49.79
2018-05-29T10:28:26.122Z,49.08
2018-05-29T10:30:54.749Z,48.62
2018-05-29T10:33:23.434Z,47.76
2018-05-29T10:35:52.701Z,47.38
2018-05-29T10:38:21.202Z,46.50
2018-05-29T10:40:50.370Z,47.24
2018-05-29T10:43:22.346Z,47.55
2018-05-29T10:45:51.076Z,48.18
2018-05-29T10:48:25.054Z,47.88
2018-05-29T10:53:37.038Z,47.87
2018-05-29T10:56:08.092Z,47.70
2018-05-29T10:58:36.672Z,47.27
2018-05-29T11:01:05.644Z,48.55
2018-05-29T11:03:39.523Z,47.85
2018-05-29T11:06:08.184Z,47.66
2018-05-29T11:08:36.756Z,46.63
2018-05-29T11:11:05.884Z,47.55
2018-05-29T11:13:34.420Z,47.33
2018-05-29T11:16:06.357Z,48.13
2018-05-29T11:18:40.291Z,47.90
2018-05-29T11:21:08.898Z,47.90
2018-05-29T11:23:38.293Z,48.21
2018-05-29T11:26:07.352Z,48.26
2018-05-29T11:28:36.058Z,47.70
2018-05-29T11:31:06.273Z,49.12
2018-05-29T11:33:35.217Z,48.71
2018-05-29T11:36:20.745Z,48.59
2018-05-29T11:38:50.443Z,48.66
2018-05-29T11:41:20.387Z,48.79
2018-05-29T11:43:49.582Z,48.70
2018-05-29T11:46:18.860Z,48.46
2018-05-29T11:48:47.516Z,47.80
2018-05-29T11:51:20.742Z,48.76
2018-05-29T11:53:50.511Z,49.53
2018-05-29T11:56:19.271Z,49.96
2018-05-29T11:58:48.674Z,49.57
2018-05-29T12:01:17.772Z,50.75
2018-05-29T12:03:47.176Z,51.54
2018-05-29T12:06:18.414Z,52.02
2018-05-29T12:08:49.272Z,52.02
2018-05-29T12:11:17.886Z,53.03
2018-05-29T12:13:46.930Z,53.51
2018-05-29T12:16:20.690Z,54.02
2018-05-29T12:18:49.351Z,54.12
2018-05-29T12:21:17.988Z,53.97
2018-05-29T12:23:46.875Z,53.26
2018-05-29T12:28:50.068Z,51.99
2018-05-29T12:31:24.505Z,51.25
2018-05-29T12:33:53.107Z,51.12
2018-05-29T12:36:22.491Z,50.30
2018-05-29T12:38:51.855Z,48.68
2018-05-29T12:41:21.527Z,48.58
2018-05-29T12:43:50.402Z,48.00
2018-05-29T12:46:20.098Z,47.82
2018-05-29T12:48:50.086Z,47.17
2018-05-29T12:51:20.699Z,47.65
2018-05-29T12:53:50.715Z,49.30
2018-05-29T12:56:24.384Z,50.59
2018-05-29T12:59:00.475Z,50.72
2018-05-29T13:01:35.532Z,49.96
2018-05-29T13:04:08.143Z,48.72
2018-05-29T13:06:36.883Z,47.89
2018-05-29T13:09:06.920Z,47.70
2018-05-29T13:11:35.925Z,47.22
2018-05-29T13:14:08.167Z,44.90
2018-05-29T13:16:43.390Z,44.67
2018-05-29T13:19:12.003Z,45.17
2018-05-29T13:21:40.546Z,45.29
2018-05-29T13:24:15.961Z,45.67
2018-05-29T13:26:44.523Z,45.76
2018-05-29T13:29:14.014Z,45.66
2018-05-29T13:31:42.924Z,45.77
2018-05-29T13:34:11.529Z,46.06
2018-05-29T13:36:40.096Z,47.23
2018-05-29T13:39:16.029Z,46.67
2018-05-29T13:41:45.494Z,46.25
2018-05-29T13:44:15.273Z,45.32
2018-05-29T13:46:44.727Z,43.40
2018-05-29T13:49:19.221Z,38.89
2018-05-29T13:51:47.992Z,37.31
2018-05-29T13:54:18.663Z,36.90
2018-05-29T13:56:48.384Z,34.63
2018-05-29T13:59:17.576Z,34.63
2018-05-29T14:01:46.380Z,32.33
2018-05-29T14:04:15.290Z,30.96
2018-05-29T14:06:44.263Z,32.21
2018-05-29T14:09:12.833Z,32.57
2018-05-29T14:11:43.438Z,33.27
2018-05-29T14:14:12.394Z,33.67
2018-05-29T14:16:45.905Z,33.73
2018-05-29T14:19:21.436Z,34.08
2018-05-29T14:21:50.271Z,36.19
2018-05-29T14:24:25.078Z,39.42
2018-05-29T14:26:53.659Z,40.94
2018-05-29T14:29:22.696Z,41.52
2018-05-29T14:31:51.215Z,41.37
2018-05-29T14:34:19.795Z,39.96
2018-05-29T14:36:49.568Z,40.05
2018-05-29T14:39:18.175Z,40.08
2018-05-29T14:41:46.741Z,39.96
2018-05-29T14:44:16.157Z,39.08
2018-05-29T14:46:44.732Z,37.67
2018-05-29T14:49:15.588Z,37.34
2018-05-29T14:51:44.651Z,33.19
2018-05-29T14:54:13.699Z,30.98
2018-05-29T14:56:42.267Z,28.94
2018-05-29T14:59:11.203Z,28.48
2018-05-29T15:01:39.782Z,27.22
2018-05-29T15:04:08.428Z,26.58
2018-05-29T15:06:38.611Z,26.19
2018-05-29T15:09:07.581Z,24.78
2018-05-29T15:11:36.225Z,24.37
2018-05-29T15:14:09.013Z,26.23
2018-05-29T15:16:37.604Z,27.48
2018-05-29T15:19:07.744Z,28.22
2018-05-29T15:21:36.772Z,30.21
2018-05-29T15:24:09.589Z,33.61
2018-05-29T15:32:37.774Z,36.24
2018-05-29T15:35:06.490Z,37.64
2018-05-29T15:37:35.418Z,38.06
2018-05-29T15:40:07.233Z,38.03
2018-05-29T15:42:35.735Z,39.58
2018-05-29T15:45:06.830Z,41.03
2018-05-29T15:47:40.481Z,42.86
2018-05-29T15:50:09.113Z,43.74
2018-05-29T15:52:38.003Z,44.79
2018-05-29T15:55:06.566Z,45.83
2018-05-29T15:57:35.340Z,46.60
2018-05-29T16:00:06.870Z,47.51
2018-05-29T16:02:35.462Z,47.37
2018-05-29T16:05:06.885Z,47.26
2018-05-29T16:07:36.022Z,48.28
2018-05-29T16:10:12.442Z,48.27
2018-05-29T16:12:41.058Z,47.67
2018-05-29T16:15:11.335Z,47.31
2018-05-29T16:17:39.852Z,46.47
2018-05-29T16:20:08.535Z,46.54
2018-05-29T16:22:37.224Z,46.52
2018-05-29T16:25:07.099Z,46.38
2018-05-29T16:27:36.147Z,46.09
2018-05-29T16:30:05.562Z,46.00
2018-05-29T16:32:34.113Z,46.03
2018-05-29T16:35:05.033Z,46.38
2018-05-29T16:37:33.592Z,46.33
2018-05-29T16:40:04.225Z,46.56
2018-05-29T16:42:33.199Z,47.08
2018-05-29T16:45:07.530Z,47.28
2018-05-29T16:47:36.190Z,47.35
2018-05-29T16:50:11.092Z,48.02
2018-05-29T16:52:39.782Z,47.64
2018-05-29T16:55:09.555Z,47.98
2018-05-29T16:57:38.145Z,47.74
2018-05-29T17:00:06.726Z,47.79
2018-05-29T17:02:35.233Z,48.29
2018-05-29T17:05:05.332Z,48.22
2018-05-29T17:07:36.827Z,48.62
2018-05-29T17:10:06.665Z,48.93
2018-05-29T17:12:35.207Z,48.98
2018-05-29T17:15:04.623Z,48.64
2018-05-29T17:17:33.116Z,48.61
2018-05-29T17:20:04.332Z,48.14
2018-05-29T17:22:33.331Z,47.69
2018-05-29T17:25:03.035Z,46.68
2018-05-29T17:27:32.065Z,46.44
2018-05-29T17:30:01.363Z,44.89
2018-05-29T17:32:30.787Z,44.03
2018-05-29T17:34:59.609Z,43.47
2018-05-29T17:37:28.223Z,43.35
2018-05-29T17:39:56.770Z,43.63
2018-05-29T17:42:25.859Z,44.90
2018-05-29T17:44:54.439Z,44.55
2018-05-29T17:47:23.268Z,44.58
2018-05-29T17:49:52.387Z,45.13
2018-05-29T17:52:21.009Z,45.42
2018-05-29T17:54:54.456Z,46.08
2018-05-29T17:57:23.691Z,48.03
2018-05-29T17:59:52.336Z,48.27
2018-05-29T18:02:25.222Z,48.17
2018-05-29T18:04:54.108Z,48.49
2018-05-29T18:07:22.713Z,48.45
2018-05-29T18:09:51.569Z,48.73
2018-05-29T18:12:20.604Z,49.13
2018-05-29T18:14:49.834Z,48.75
2018-05-29T18:17:18.429Z,47.94
2018-05-29T18:19:47.513Z,47.44
2018-05-29T18:24:51.495Z,47.57
2018-05-29T18:27:21.815Z,47.43
2018-05-29T18:29:50.435Z,47.17
2018-05-29T18:32:19.423Z,47.21
2018-05-29T18:34:48.185Z,47.11
2018-05-29T18:39:50.515Z,47.17
2018-05-29T18:42:19.116Z,47.50
2018-05-29T18:44:52.639Z,47.46
2018-05-29T18:47:21.481Z,47.74
2018-05-29T18:49:50.083Z,48.03
2018-05-29T18:52:18.998Z,48.22
2018-05-29T18:54:47.710Z,48.79
2018-05-29T18:57:16.564Z,49.05
2018-05-29T18:59:45.222Z,49.69
2018-05-29T19:02:14.366Z,50.03
2018-05-29T19:04:43.155Z,50.50
2018-05-29T19:07:14.349Z,50.95
2018-05-29T19:09:45.203Z,51.34
2018-05-29T19:12:14.492Z,51.50
2018-05-29T19:14:43.460Z,51.68
2018-05-29T19:17:12.087Z,52.50
2018-05-29T19:19:40.937Z,52.60
2018-05-29T19:22:13.599Z,52.74
2018-05-29T19:24:42.271Z,53.43
2018-05-29T19:27:17.481Z,53.35
2018-05-29T19:29:46.027Z,53.60
2018-05-29T19:32:14.817Z,54.03
2018-05-29T19:34:48.659Z,54.45
2018-05-29T19:37:17.220Z,54.92
2018-05-29T19:39:47.950Z,55.05
2018-05-29T19:42:17.673Z,55.18
2018-05-29T19:44:46.289Z,55.34
2018-05-29T19:47:14.834Z,55.33
2018-05-29T19:49:43.636Z,55.47
2018-05-29T19:52:17.955Z,55.48
2018-05-29T19:54:46.516Z,55.45
2018-05-29T19:57:19.406Z,55.60
2018-05-29T19:59:48.135Z,55.80
2018-05-29T20:02:16.824Z,55.82
2018-05-29T20:04:45.647Z,56.02
2018-05-29T20:07:14.451Z,56.10
2018-05-29T20:09:48.034Z,56.29
2018-05-29T20:12:17.019Z,56.23
2018-05-29T20:14:45.603Z,56.28
2018-05-29T20:17:19.207Z,56.33
2018-05-29T20:19:47.785Z,56.35
2018-05-29T20:22:22.790Z,56.37
2018-05-29T20:24:52.010Z,56.42
2018-05-29T20:27:21.076Z,56.60
2018-05-29T20:29:49.879Z,56.74
2018-05-29T20:32:18.705Z,56.72
2018-05-29T20:34:47.376Z,56.96
2018-05-29T20:37:16.538Z,57.00
2018-05-29T20:39:45.132Z,57.04
2018-05-29T20:42:13.713Z,57.21
2018-05-29T20:44:42.251Z,57.48
2018-05-29T20:47:11.147Z,57.54
2018-05-29T20:49:40.211Z,57.90
2018-05-29T20:52:08.999Z,58.12
2018-05-29T20:54:37.629Z,58.54
2018-05-29T20:57:06.224Z,58.78
2018-05-29T20:59:35.191Z,59.00
2018-05-29T21:02:05.071Z,58.98
2018-05-29T21:04:33.654Z,59.05
2018-05-29T21:07:03.571Z,58.98
2018-05-29T21:09:32.387Z,58.72
2018-05-29T21:12:03.905Z,58.83
2018-05-29T21:14:32.460Z,59.19
2018-05-29T21:17:11.552Z,59.31
2018-05-29T21:19:40.818Z,59.53
2018-05-29T21:22:09.594Z,60.07
2018-05-29T21:24:38.431Z,60.08
2018-05-29T21:27:08.231Z,60.17
2018-05-29T21:29:36.952Z,60.34
2018-05-29T21:32:05.898Z,60.61
2018-05-29T21:34:34.523Z,60.87
2018-05-29T21:37:09.228Z,60.99
2018-05-29T21:39:38.771Z,61.12
2018-05-29T21:42:07.612Z,61.14
2018-05-29T21:44:42.443Z,61.29
2018-05-29T21:47:13.048Z,61.26
2018-05-29T21:49:41.612Z,61.47
2018-05-29T21:52:10.264Z,61.41
2018-05-29T21:54:39.072Z,61.42
2018-05-29T21:57:07.694Z,61.50
2018-05-29T21:59:36.598Z,61.47
2018-05-29T22:02:10.811Z,61.52
2018-05-29T22:04:39.696Z,61.91
2018-05-29T22:07:08.328Z,61.80
2018-05-29T22:09:43.430Z,61.89
2018-05-29T22:12:12.130Z,62.06
2018-05-29T22:14:40.803Z,62.10
2018-05-29T22:17:09.869Z,62.14
2018-05-29T22:19:38.533Z,62.12
2018-05-29T22:22:07.567Z,62.17
2018-05-29T22:24:36.417Z,62.12
2018-05-29T22:27:05.149Z,62.12
2018-05-29T22:29:33.757Z,62.21
2018-05-29T22:32:05.368Z,62.16
2018-05-29T22:34:33.939Z,62.35
2018-05-29T22:37:03.570Z,62.18
2018-05-29T22:39:32.481Z,62.05
2018-05-29T22:42:02.119Z,62.03
2018-05-29T22:44:45.361Z,62.09
2018-05-29T22:47:14.584Z,62.67
2018-05-29T22:49:43.173Z,63.04
2018-05-29T22:52:11.737Z,63.30
2018-05-29T22:54:40.360Z,63.55
2018-05-29T22:57:08.969Z,63.71
2018-05-29T23:02:17.064Z,63.74
2018-05-29T23:04:45.896Z,63.64
2018-05-29T23:07:14.566Z,63.61
2018-05-29T23:09:43.465Z,63.69
2018-05-29T23:12:12.360Z,63.56
2018-05-29T23:14:40.976Z,63.58
2018-05-29T23:17:09.747Z,63.63
2018-05-29T23:19:38.565Z,63.60
2018-05-29T23:22:08.629Z,63.84
2018-05-29T23:24:37.198Z,63.85
2018-05-29T23:27:06.206Z,63.94
2018-05-29T23:29:34.905Z,63.99
2018-05-29T23:32:04.182Z,64.13
2018-05-29T23:34:32.765Z,64.33
2018-05-29T23:37:06.481Z,64.45
2018-05-29T23:39:36.377Z,64.52
2018-05-29T23:42:06.464Z,64.61
2018-05-29T23:44:40.977Z,64.67
2018-05-29T23:47:09.984Z,64.58
2018-05-29T23:49:40.352Z,64.63
2018-05-29T23:52:09.723Z,64.66
2018-05-29T23:54:38.321Z,64.79
2018-05-29T23:57:06.944Z,64.90
2018-05-29T23:59:37.841Z,65.05
